createdAt,value
2022-11-02T00:00:45.321Z,99376.20
2022-11-02T00:03:29.223Z,99378.00
2022-11-02T00:05:56.773Z,99380.20
2022-11-02T00:08:24.357Z,99379.60
2022-11-02T00:10:51.885Z,99377.40
2022-11-02T00:13:19.482Z,99377.40
2022-11-02T00:15:47.242Z,99375.80
2022-11-02T00:18:15.565Z,99373.60
2022-11-02T00:20:43.575Z,99372.20
2022-11-02T00:23:14.179Z,99378.80
2022-11-02T00:25:46.899Z,99377.20
2022-11-02T00:28:15.797Z,99377.00
2022-11-02T00:30:44.447Z,99376.20
2022-11-02T00:33:12.303Z,99379.40
2022-11-02T00:35:41.520Z,99381.40
2022-11-02T00:38:09.227Z,99385.20
2022-11-02T00:40:36.984Z,99382.60
2022-11-02T00:43:06.387Z,99385.40
2022-11-02T00:45:34.198Z,99388.00
2022-11-02T00:48:02.154Z,99386.40
2022-11-02T00:50:30.588Z,99382.20
2022-11-02T00:52:58.163Z,99381.20
2022-11-02T00:55:25.903Z,99384.60
2022-11-02T00:57:54.108Z,99384.80
2022-11-02T01:00:21.727Z,99391.20
2022-11-02T01:02:49.716Z,99393.20
2022-11-02T01:05:18.322Z,99389.80
2022-11-02T01:07:45.872Z,99390.40
2022-11-02T01:10:13.397Z,99388.80
2022-11-02T01:12:41.019Z,99387.40
2022-11-02T01:15:10.439Z,99382.20
2022-11-02T01:17:38.672Z,99383.00
2022-11-02T01:20:08.291Z,99387.60
2022-11-02T01:22:35.903Z,99382.20
2022-11-02T01:25:04.376Z,99387.20
2022-11-02T01:27:32.081Z,99388.60
2022-11-02T01:29:59.756Z,99390.40
2022-11-02T01:32:30.762Z,99389.80
2022-11-02T01:34:58.427Z,99390.60
2022-11-02T01:37:25.985Z,99388.60
2022-11-02T01:39:53.533Z,99397.20
2022-11-02T01:42:24.605Z,99397.40
2022-11-02T01:44:52.458Z,99401.00
2022-11-02T01:47:31.494Z,99399.60
2022-11-02T01:50:08.488Z,99399.20
2022-11-02T01:52:38.935Z,99402.00
2022-11-02T01:55:24.903Z,99404.00
2022-11-02T01:58:13.146Z,99405.60
2022-11-02T02:00:40.883Z,99404.00
2022-11-02T02:03:14.596Z,99403.00
2022-11-02T02:05:49.314Z,99400.80
2022-11-02T02:08:20.613Z,99400.80
2022-11-02T02:10:48.479Z,99406.40
2022-11-02T02:13:18.634Z,99410.80
2022-11-02T02:16:09.393Z,99409.00
2022-11-02T02:18:59.743Z,99407.80
2022-11-02T02:22:15.511Z,99405.60
2022-11-02T02:25:28.952Z,99402.80
2022-11-02T02:28:27.477Z,99400.60
2022-11-02T02:31:17.856Z,99403.40
2022-11-02T02:34:07.563Z,99400.80
2022-11-02T02:36:51.970Z,99398.40
2022-11-02T02:39:47.004Z,99403.00
2022-11-02T02:42:28.671Z,99405.00
2022-11-02T02:45:25.791Z,99409.60
2022-11-02T02:48:16.771Z,99404.40
2022-11-02T02:50:50.253Z,99409.20
2022-11-02T02:53:27.616Z,99408.80
2022-11-02T02:55:55.368Z,99402.80
2022-11-02T02:58:32.507Z,99403.60
2022-11-02T03:01:00.755Z,99398.40
2022-11-02T03:03:30.436Z,99399.20
2022-11-02T03:06:17.943Z,99397.60
2022-11-02T03:09:02.276Z,99403.80
2022-11-02T03:11:31.743Z,99405.00
2022-11-02T03:14:37.089Z,99403.00
2022-11-02T03:17:22.975Z,99410.40
2022-11-02T03:20:15.947Z,99413.40
2022-11-02T03:23:00.768Z,99412.00
2022-11-02T03:25:56.675Z,99413.60
2022-11-02T03:28:40.177Z,99408.80
2022-11-02T03:31:39.527Z,99412.40
2022-11-02T03:34:36.928Z,99424.20
2022-11-02T03:37:30.699Z,99423.20
2022-11-02T03:40:03.939Z,99424.20
2022-11-02T03:42:35.098Z,99425.00
2022-11-02T03:45:13.249Z,99426.60
2022-11-02T03:47:47.171Z,99431.60
2022-11-02T03:50:20.515Z,99428.40
2022-11-02T03:52:57.692Z,99430.60
2022-11-02T03:55:39.747Z,99427.00
2022-11-02T03:58:11.549Z,99430.60
2022-11-02T04:00:50.157Z,99434.00
2022-11-02T04:03:19.543Z,99441.80
2022-11-02T04:05:47.110Z,99439.80
2022-11-02T04:08:22.614Z,99439.60
2022-11-02T04:11:11.184Z,99444.00
2022-11-02T04:13:57.713Z,99447.80
2022-11-02T04:16:28.350Z,99448.00
2022-11-02T04:19:14.841Z,99442.20
2022-11-02T04:22:02.372Z,99442.40
2022-11-02T04:24:49.126Z,99438.40
2022-11-02T04:27:20.566Z,99446.80
2022-11-02T04:29:49.510Z,99449.00
2022-11-02T04:32:36.775Z,99443.20
2022-11-02T04:35:05.498Z,99446.20
2022-11-02T04:38:00.854Z,99454.20
2022-11-02T04:40:28.946Z,99454.80
2022-11-02T04:42:56.557Z,99450.60
2022-11-02T04:45:24.419Z,99457.60
2022-11-02T04:47:51.965Z,99455.40
2022-11-02T04:50:19.763Z,99455.60
2022-11-02T04:52:47.311Z,99456.40
2022-11-02T04:55:15.001Z,99455.20
2022-11-02T04:57:45.490Z,99451.60
2022-11-02T05:00:14.325Z,99450.80
2022-11-02T05:02:42.147Z,99453.00
2022-11-02T05:05:12.188Z,99446.40
2022-11-02T05:07:40.194Z,99443.80
2022-11-02T05:10:09.361Z,99447.20
2022-11-02T05:12:37.502Z,99441.80
2022-11-02T05:15:06.012Z,99439.00
2022-11-02T05:17:33.665Z,99438.80
2022-11-02T05:20:01.545Z,99436.20
2022-11-02T05:22:30.579Z,99440.00
2022-11-02T05:24:58.247Z,99441.20
2022-11-02T05:27:25.874Z,99448.60
2022-11-02T05:29:53.524Z,99450.60
2022-11-02T05:32:21.112Z,99451.80
2022-11-02T05:34:49.095Z,99454.00
2022-11-02T05:37:16.794Z,99455.00
2022-11-02T05:39:47.772Z,99461.20
2022-11-02T05:42:18.101Z,99461.20
2022-11-02T05:44:45.630Z,99456.20
2022-11-02T05:47:13.173Z,99455.20
2022-11-02T05:49:40.797Z,99462.20
2022-11-02T05:52:08.454Z,99463.60
2022-11-02T05:54:36.111Z,99466.20
2022-11-02T05:57:03.864Z,99457.80
2022-11-02T05:59:31.423Z,99462.40
2022-11-02T06:01:59.256Z,99467.80
2022-11-02T06:04:26.852Z,99469.80
2022-11-02T06:06:54.924Z,99472.80
2022-11-02T06:09:22.503Z,99472.60
2022-11-02T06:11:50.139Z,99472.20
2022-11-02T06:14:17.778Z,99474.20
2022-11-02T06:16:45.340Z,99479.00
2022-11-02T06:21:48.293Z,99476.20
2022-11-02T06:24:16.422Z,99475.80
2022-11-02T06:26:44.063Z,99477.00
2022-11-02T06:29:11.636Z,99482.40
2022-11-02T06:31:39.660Z,99485.00
2022-11-02T06:34:07.615Z,99484.60
2022-11-02T06:36:35.172Z,99486.20
2022-11-02T06:39:02.753Z,99486.40
2022-11-02T06:41:30.352Z,99488.40
2022-11-02T06:43:57.911Z,99492.60
2022-11-02T06:46:25.721Z,99491.20
2022-11-02T06:48:53.874Z,99490.00
2022-11-02T06:51:22.262Z,99491.60
2022-11-02T06:53:49.884Z,99487.80
2022-11-02T06:56:17.529Z,99492.00
2022-11-02T06:58:45.125Z,99490.20
2022-11-02T07:01:13.825Z,99490.00
2022-11-02T07:03:41.445Z,99487.00
2022-11-02T07:06:13.847Z,99487.80
2022-11-02T07:08:42.654Z,99487.80
2022-11-02T07:11:16.352Z,99487.20
2022-11-02T07:13:45.026Z,99487.40
2022-11-02T07:16:12.966Z,99486.40
2022-11-02T07:18:41.453Z,99488.00
2022-11-02T07:21:11.371Z,99490.20
2022-11-02T07:23:39.060Z,99488.00
2022-11-02T07:26:06.590Z,99490.20
2022-11-02T07:28:36.848Z,99487.20
2022-11-02T07:31:05.401Z,99498.60
2022-11-02T07:33:32.967Z,99498.80
2022-11-02T07:36:04.465Z,99499.80
2022-11-02T07:38:32.113Z,99503.20
2022-11-02T07:40:59.738Z,99496.00
2022-11-02T07:43:28.812Z,99496.00
2022-11-02T07:45:56.442Z,99492.80
2022-11-02T07:48:24.059Z,99489.80
2022-11-02T07:50:51.789Z,99494.00
2022-11-02T07:53:19.496Z,99495.20
2022-11-02T07:55:47.102Z,99490.80
2022-11-02T07:58:14.819Z,99492.60
2022-11-02T08:00:42.815Z,99488.80
2022-11-02T08:03:12.643Z,99484.60
2022-11-02T08:05:43.282Z,99488.40
2022-11-02T08:08:17.471Z,99488.00
2022-11-02T08:10:48.142Z,99495.40
2022-11-02T08:13:21.179Z,99494.60
2022-11-02T08:15:50.843Z,99498.00
2022-11-02T08:18:25.457Z,99494.00
2022-11-02T08:20:56.905Z,99490.60
2022-11-02T08:23:26.316Z,99498.60
2022-11-02T08:25:58.152Z,99500.00
2022-11-02T08:28:32.233Z,99498.20
2022-11-02T08:30:59.995Z,99500.20
2022-11-02T08:33:28.126Z,99499.80
2022-11-02T08:36:04.303Z,99497.40
2022-11-02T08:38:32.623Z,99498.20
2022-11-02T08:41:00.920Z,99499.20
2022-11-02T08:43:28.887Z,99500.60
2022-11-02T08:46:14.243Z,99499.60
2022-11-02T08:48:43.432Z,99494.20
2022-11-02T08:51:11.275Z,99490.00
2022-11-02T08:53:38.919Z,99489.00
2022-11-02T08:56:07.142Z,99488.80
2022-11-02T08:58:34.848Z,99491.00
2022-11-02T09:01:02.599Z,99486.60
2022-11-02T09:03:30.501Z,99485.60
2022-11-02T09:06:01.352Z,99485.00
2022-11-02T09:08:30.708Z,99490.40
2022-11-02T09:11:02.591Z,99489.20
2022-11-02T09:13:31.287Z,99485.60
2022-11-02T09:16:00.492Z,99484.80
2022-11-02T09:18:28.719Z,99484.60
2022-11-02T09:20:57.189Z,99477.80
2022-11-02T09:23:24.897Z,99483.60
2022-11-02T09:25:52.675Z,99478.40
2022-11-02T09:28:20.444Z,99481.60
2022-11-02T09:30:48.312Z,99477.00
2022-11-02T09:33:16.028Z,99477.40
2022-11-02T09:35:47.498Z,99477.00
2022-11-02T09:38:18.467Z,99479.40
2022-11-02T09:41:06.022Z,99475.40
2022-11-02T09:43:56.238Z,99470.00
2022-11-02T09:46:43.155Z,99474.60
2022-11-02T09:49:17.440Z,99474.00
2022-11-02T09:51:54.898Z,99470.80
2022-11-02T09:54:45.929Z,99470.80
2022-11-02T09:57:29.654Z,99471.60
2022-11-02T10:00:01.677Z,99471.20
2022-11-02T10:02:55.356Z,99466.40
2022-11-02T10:05:45.709Z,99464.00
2022-11-02T10:08:35.884Z,99462.00
2022-11-02T10:14:21.103Z,99462.40
2022-11-02T10:17:03.205Z,99458.40
2022-11-02T10:19:37.279Z,99464.00
2022-11-02T10:22:05.648Z,99460.60
2022-11-02T10:24:43.408Z,99459.60
2022-11-02T10:27:39.286Z,99454.20
2022-11-02T10:30:21.658Z,99453.60
2022-11-02T10:32:54.413Z,99443.60
2022-11-02T10:36:04.909Z,99438.00
2022-11-02T10:38:38.160Z,99434.80
2022-11-02T10:41:34.088Z,99434.00
2022-11-02T10:44:23.948Z,99427.40
2022-11-02T10:47:21.535Z,99426.60
2022-11-02T10:50:15.603Z,99425.20
2022-11-02T10:52:46.478Z,99435.00
2022-11-02T10:55:44.438Z,99431.80
2022-11-02T10:58:20.361Z,99430.60
2022-11-02T11:00:48.492Z,99429.00
2022-11-02T11:03:18.585Z,99426.20
2022-11-02T11:05:59.582Z,99431.60
2022-11-02T11:08:41.582Z,99429.20
2022-11-02T11:11:16.209Z,99434.40
2022-11-02T11:16:51.313Z,99434.00
2022-11-02T11:22:33.719Z,99436.60
2022-11-02T11:25:13.784Z,99432.80
2022-11-02T11:27:48.706Z,99428.40
2022-11-02T11:33:25.347Z,99419.40
2022-11-02T11:35:53.148Z,99411.80
2022-11-02T11:38:27.267Z,99412.60
2022-11-02T11:40:59.687Z,99407.40
2022-11-02T11:43:34.974Z,99408.60
2022-11-02T11:46:08.824Z,99406.60
2022-11-02T11:48:46.504Z,99402.00
2022-11-02T11:51:41.530Z,99403.00
2022-11-02T11:54:32.714Z,99400.40
2022-11-02T11:57:31.657Z,99399.00
2022-11-02T12:00:27.822Z,99401.20
2022-11-02T12:03:06.996Z,99401.80
2022-11-02T12:06:00.625Z,99402.60
2022-11-02T12:09:04.743Z,99406.60
2022-11-02T12:12:21.515Z,99404.40
2022-11-02T12:15:23.239Z,99393.00
2022-11-02T12:18:48.784Z,99393.40
2022-11-02T12:22:03.634Z,99392.60
2022-11-02T12:24:51.697Z,99395.20
2022-11-02T12:27:29.351Z,99393.00
2022-11-02T12:30:15.092Z,99391.80
2022-11-02T12:33:28.815Z,99396.40
2022-11-02T12:36:19.598Z,99399.00
2022-11-02T12:39:16.905Z,99404.00
2022-11-02T12:42:20.950Z,99403.40
2022-11-02T12:45:15.334Z,99403.80
2022-11-02T12:48:00.192Z,99392.20
2022-11-02T12:50:49.062Z,99395.00
2022-11-02T12:53:26.526Z,99392.00
2022-11-02T12:56:00.647Z,99397.20
2022-11-02T12:58:37.326Z,99396.20
2022-11-02T13:01:29.331Z,99393.60
2022-11-02T13:04:37.065Z,99390.00
2022-11-02T13:07:16.736Z,99394.20
2022-11-02T13:09:53.278Z,99400.60
2022-11-02T13:12:24.727Z,99391.20
2022-11-02T13:14:58.327Z,99395.20
2022-11-02T13:17:43.732Z,99399.40
2022-11-02T13:20:23.478Z,99400.60
2022-11-02T13:23:07.765Z,99396.20
2022-11-02T13:25:48.790Z,99397.80
2022-11-02T13:28:30.849Z,99392.60
2022-11-02T13:30:59.544Z,99396.40
2022-11-02T13:33:41.672Z,99399.20
2022-11-02T13:36:10.568Z,99393.80
2022-11-02T13:39:30.232Z,99390.60
2022-11-02T13:42:56.170Z,99391.40
2022-11-02T13:46:25.897Z,99393.80
2022-11-02T13:49:26.851Z,99398.20
2022-11-02T13:52:04.095Z,99400.60
2022-11-02T13:54:43.502Z,99404.20
2022-11-02T13:57:40.702Z,99404.20
2022-11-02T14:00:43.914Z,99401.00
2022-11-02T14:03:29.064Z,99405.80
2022-11-02T14:06:01.651Z,99408.80
2022-11-02T14:08:47.662Z,99412.00
2022-11-02T14:11:18.505Z,99409.00
2022-11-02T14:13:55.849Z,99412.20
2022-11-02T14:16:42.765Z,99409.60
2022-11-02T14:19:49.245Z,99410.20
2022-11-02T14:22:19.640Z,99410.00
2022-11-02T14:24:49.426Z,99413.40
2022-11-02T14:27:19.246Z,99410.80
2022-11-02T14:29:50.920Z,99411.00
2022-11-02T14:32:23.902Z,99415.20
2022-11-02T14:35:19.307Z,99417.80
2022-11-02T14:38:22.901Z,99424.80
2022-11-02T14:41:27.314Z,99423.60
2022-11-02T14:44:23.182Z,99416.20
2022-11-02T14:47:07.977Z,99419.20
2022-11-02T14:50:06.709Z,99427.40
2022-11-02T14:52:36.723Z,99429.40
2022-11-02T14:55:22.974Z,99436.00
2022-11-02T14:58:14.082Z,99438.40
2022-11-02T15:00:47.984Z,99439.80
2022-11-02T15:03:25.179Z,99441.00
2022-11-02T15:06:17.795Z,99441.20
2022-11-02T15:08:59.645Z,99443.20
2022-11-02T15:11:50.056Z,99444.60
2022-11-02T15:14:55.222Z,99444.00
2022-11-02T15:17:24.231Z,99449.20
2022-11-02T15:20:15.692Z,99455.40
2022-11-02T15:23:29.784Z,99456.60
2022-11-02T15:25:59.837Z,99457.40
2022-11-02T15:28:33.680Z,99462.80
2022-11-02T15:31:15.881Z,99467.60
2022-11-02T15:33:48.947Z,99467.20
2022-11-02T15:36:35.188Z,99468.60
2022-11-02T15:39:10.540Z,99476.60
2022-11-02T15:42:02.855Z,99480.80
2022-11-02T15:45:26.856Z,99480.80
2022-11-02T15:48:27.691Z,99481.00
2022-11-02T15:51:11.552Z,99475.60
2022-11-02T15:53:51.898Z,99479.60
2022-11-02T15:56:47.391Z,99482.20
2022-11-02T15:59:49.127Z,99484.60
2022-11-02T16:02:27.902Z,99486.60
2022-11-02T16:05:00.472Z,99486.00
2022-11-02T16:07:50.341Z,99495.40
2022-11-02T16:10:40.504Z,99497.00
2022-11-02T16:13:08.112Z,99499.40
2022-11-02T16:15:36.241Z,99500.20
2022-11-02T16:18:04.581Z,99493.80
2022-11-02T16:20:39.920Z,99499.40
2022-11-02T16:23:22.473Z,99501.00
2022-11-02T16:25:54.292Z,99499.00
2022-11-02T16:28:33.240Z,99508.00
2022-11-02T16:31:19.847Z,99507.60
2022-11-02T16:33:59.698Z,99502.20
2022-11-02T16:36:31.239Z,99510.00
2022-11-02T16:39:02.220Z,99518.20
2022-11-02T16:41:33.917Z,99525.60
2022-11-02T16:44:10.987Z,99528.00
2022-11-02T16:46:50.407Z,99524.20
2022-11-02T16:49:20.882Z,99526.00
2022-11-02T16:52:33.743Z,99529.00
2022-11-02T16:55:03.647Z,99528.40
2022-11-02T16:57:45.123Z,99531.40
2022-11-02T17:00:20.801Z,99531.40
2022-11-02T17:02:48.749Z,99535.60
2022-11-02T17:05:21.670Z,99534.00
2022-11-02T17:08:09.565Z,99544.20
2022-11-02T17:10:39.498Z,99550.80
2022-11-02T17:13:21.519Z,99550.40
2022-11-02T17:15:52.204Z,99547.20
2022-11-02T17:18:22.754Z,99548.80
2022-11-02T17:21:12.276Z,99545.40
2022-11-02T17:23:46.300Z,99546.00
2022-11-02T17:26:23.091Z,99545.40
2022-11-02T17:28:54.547Z,99544.80
2022-11-02T17:31:25.582Z,99545.20
2022-11-02T17:33:54.701Z,99555.20
2022-11-02T17:36:22.609Z,99562.40
2022-11-02T17:38:50.271Z,99561.60
2022-11-02T17:41:51.392Z,99563.80
2022-11-02T17:44:19.088Z,99563.20
2022-11-02T17:46:46.805Z,99562.20
2022-11-02T17:49:14.632Z,99563.60
2022-11-02T17:51:42.686Z,99563.60
2022-11-02T17:54:13.961Z,99563.60
2022-11-02T17:56:41.764Z,99570.80
2022-11-02T17:59:09.815Z,99569.60
2022-11-02T18:01:37.569Z,99576.00
2022-11-02T18:04:05.374Z,99570.80
2022-11-02T18:06:33.237Z,99571.60
2022-11-02T18:09:14.502Z,99566.20
2022-11-02T18:11:42.228Z,99576.60
2022-11-02T18:14:15.722Z,99574.80
2022-11-02T18:16:44.667Z,99574.00
2022-11-02T18:19:12.813Z,99576.00
2022-11-02T18:21:40.495Z,99577.00
2022-11-02T18:24:08.308Z,99577.00
2022-11-02T18:26:36.038Z,99579.40
2022-11-02T18:29:04.515Z,99577.80
2022-11-02T18:31:34.962Z,99585.80
2022-11-02T18:34:02.605Z,99586.20
2022-11-02T18:36:30.344Z,99587.80
2022-11-02T18:38:58.074Z,99587.60
2022-11-02T18:41:29.776Z,99585.60
2022-11-02T18:44:07.837Z,99587.80
2022-11-02T18:46:39.531Z,99592.00
2022-11-02T18:49:07.363Z,99602.20
2022-11-02T18:51:35.140Z,99602.40
2022-11-02T18:54:05.935Z,99610.20
2022-11-02T18:56:33.843Z,99613.20
2022-11-02T18:59:01.841Z,99611.60
2022-11-02T19:01:29.759Z,99617.00
2022-11-02T19:04:00.006Z,99616.40
2022-11-02T19:06:49.291Z,99617.00
2022-11-02T19:09:19.163Z,99622.20
2022-11-02T19:12:00.692Z,99621.20
2022-11-02T19:14:36.983Z,99625.00
2022-11-02T19:17:06.930Z,99626.00
2022-11-02T19:19:35.394Z,99634.40
2022-11-02T19:22:03.979Z,99636.40
2022-11-02T19:24:31.715Z,99634.80
2022-11-02T19:26:59.597Z,99637.80
2022-11-02T19:29:27.267Z,99636.60
2022-11-02T19:31:54.915Z,99639.80
2022-11-02T19:34:24.058Z,99642.60
2022-11-02T19:36:51.790Z,99638.00
2022-11-02T19:39:19.407Z,99642.60
2022-11-02T19:41:51.779Z,99634.80
2022-11-02T19:44:19.623Z,99637.00
2022-11-02T19:46:48.094Z,99641.20
2022-11-02T19:49:15.855Z,99640.40
2022-11-02T19:51:43.545Z,99645.00
2022-11-02T19:54:11.323Z,99643.40
2022-11-02T19:56:39.302Z,99639.20
2022-11-02T19:59:07.159Z,99643.00
2022-11-02T20:01:39.647Z,99644.60
2022-11-02T20:04:07.523Z,99650.40
2022-11-02T20:06:39.574Z,99641.60
2022-11-02T20:09:16.297Z,99643.00
2022-11-02T20:11:46.374Z,99646.20
2022-11-02T20:14:16.975Z,99647.20
2022-11-02T20:16:53.679Z,99644.20
2022-11-02T20:19:26.192Z,99638.40
2022-11-02T20:21:53.849Z,99637.00
2022-11-02T20:24:21.494Z,99637.80
2022-11-02T20:26:49.231Z,99639.40
2022-11-02T20:29:18.177Z,99640.00
2022-11-02T20:31:46.142Z,99643.20
2022-11-02T20:34:13.838Z,99646.60
2022-11-02T20:36:42.011Z,99644.00
2022-11-02T20:39:10.936Z,99646.00
2022-11-02T20:41:38.740Z,99649.80
2022-11-02T20:44:07.060Z,99644.20
2022-11-02T20:46:41.079Z,99650.40
2022-11-02T20:49:20.520Z,99650.00
2022-11-02T20:51:51.188Z,99649.00
2022-11-02T20:54:20.058Z,99649.00
2022-11-02T20:56:50.528Z,99650.80
2022-11-02T20:59:18.518Z,99648.60
2022-11-02T21:01:46.377Z,99648.60
2022-11-02T21:04:20.396Z,99653.40
2022-11-02T21:06:50.143Z,99656.60
2022-11-02T21:09:19.277Z,99665.60
2022-11-02T21:12:06.260Z,99667.00
2022-11-02T21:14:33.953Z,99668.80
2022-11-02T21:17:02.907Z,99667.00
2022-11-02T21:19:30.711Z,99668.80
2022-11-02T21:22:00.343Z,99674.60
2022-11-02T21:24:29.564Z,99677.60
2022-11-02T21:26:57.307Z,99677.20
2022-11-02T21:29:25.118Z,99676.20
2022-11-02T21:31:52.783Z,99667.40
2022-11-02T21:34:20.606Z,99671.40
2022-11-02T21:36:48.796Z,99667.60
2022-11-02T21:39:16.644Z,99662.60
2022-11-02T21:41:44.374Z,99662.20
2022-11-02T21:44:12.044Z,99666.00
2022-11-02T21:46:39.708Z,99671.00
2022-11-02T21:49:07.566Z,99665.40
2022-11-02T21:51:37.327Z,99670.20
2022-11-02T21:54:05.271Z,99668.00
2022-11-02T21:56:34.203Z,99671.00
2022-11-02T21:59:02.206Z,99668.00
2022-11-02T22:01:45.536Z,99660.80
2022-11-02T22:04:31.646Z,99660.20
2022-11-02T22:07:00.939Z,99660.20
2022-11-02T22:09:29.198Z,99660.60
2022-11-02T22:12:16.204Z,99666.00
2022-11-02T22:14:45.011Z,99669.80
2022-11-02T22:17:35.289Z,99675.40
2022-11-02T22:20:00.980Z,99675.20
2022-11-02T22:22:28.731Z,99672.40
2022-11-02T22:24:56.291Z,99673.20
2022-11-02T22:27:23.859Z,99679.80
2022-11-02T22:29:51.575Z,99679.60
2022-11-02T22:32:19.203Z,99680.40
2022-11-02T22:34:46.920Z,99680.60
2022-11-02T22:37:33.101Z,99685.80
2022-11-02T22:40:00.742Z,99684.00
2022-11-02T22:42:28.370Z,99686.00
2022-11-02T22:44:58.543Z,99688.60
2022-11-02T22:47:26.398Z,99685.80
2022-11-02T22:49:54.089Z,99688.80
2022-11-02T22:52:22.095Z,99684.20
2022-11-02T22:54:49.881Z,99685.60
2022-11-02T22:57:17.531Z,99688.60
2022-11-02T22:59:45.179Z,99686.00
2022-11-02T23:02:12.917Z,99688.80
2022-11-02T23:04:40.490Z,99686.40
2022-11-02T23:07:08.170Z,99696.40
2022-11-02T23:09:35.856Z,99697.00
2022-11-02T23:12:03.960Z,99697.40
2022-11-02T23:14:31.610Z,99700.40
2022-11-02T23:16:59.524Z,99698.60
2022-11-02T23:19:30.025Z,99702.80
2022-11-02T23:22:29.565Z,99704.60
2022-11-02T23:25:12.927Z,99703.60
2022-11-02T23:28:13.656Z,99703.40
2022-11-02T23:31:01.174Z,99700.00
2022-11-02T23:33:37.867Z,99701.40
2022-11-02T23:36:12.594Z,99704.20
2022-11-02T23:39:05.623Z,99705.80
2022-11-02T23:41:37.951Z,99712.40
2022-11-02T23:44:12.318Z,99711.20
2022-11-02T23:46:46.681Z,99712.00
2022-11-02T23:49:17.776Z,99710.00
2022-11-02T23:52:04.388Z,99708.20
2022-11-02T23:54:51.098Z,99707.60
2022-11-02T23:57:20.263Z,99706.20
2022-11-02T23:59:48.505Z,99704.00
